Time;durP1;ratioP1;P1;durP2;ratioP2;P2;SDS_P1;SDS_P2;PMS_P1;PMS_P2;Temp;Humidity;BMP_temperature;BMP_pressure;BME280_temperature;BME280_humidity;BME280_pressure;Samples;Min_cycle;Max_cycle;Signal;HPM_P1;HPM_P2
2023/02/19 03:32:50;;;;;;;;;29.00;25.00;;;;;;;;6309071;39;9999503;-57
2023/02/19 03:39:16;;;;;;;;;34.00;30.75;;;;;;;;6491991;46;8909;-59
2023/02/19 03:52:58;;;;;;;;;32.50;26.75;;;;;;;;6491159;39;8903;-58
2023/02/19 03:59:36;;;;;;;;;31.00;24.25;;;;;;;;6491414;39;8935;-59
2023/02/19 04:06:03;;;;;;;;;29.00;27.25;;;;;;;;6491135;39;8945;-58
2023/02/19 04:12:12;;;;;;;;;39.00;35.00;;;;;;;;6491936;31;8937;-59
2023/02/19 04:18:38;;;;;;;;;35.00;31.50;;;;;;;;6490328;39;8903;-58
2023/02/19 04:31:06;;;;;;;;;38.25;33.25;;;;;;;;6490719;39;8985;-58
2023/02/19 04:37:27;;;;;;;;;35.50;32.75;;;;;;;;6490514;39;9026;-59
2023/02/19 04:44:04;;;;;;;;;33.00;32.00;;;;;;;;6489294;46;8913;-58
2023/02/19 04:50:16;;;;;;;;;30.75;30.75;;;;;;;;6490340;46;8906;-58
2023/02/19 04:56:31;;;;;;;;;36.00;29.00;;;;;;;;6489270;39;8968;-56
2023/02/19 05:02:37;;;;;;;;;30.50;29.00;;;;;;;;6489499;39;9547;-57
2023/02/19 05:08:44;;;;;;;;;37.00;33.00;;;;;;;;6489185;46;8869;-59
2023/02/19 05:15:00;;;;;;;;;37.25;33.00;;;;;;;;6489700;39;8998;-57
2023/02/19 05:21:18;;;;;;;;;35.75;33.00;;;;;;;;6489766;39;9371;-58
2023/02/19 05:27:37;;;;;;;;;37.00;32.50;;;;;;;;6489081;39;9803;-58
2023/02/19 18:35:52;;;;;;;;;21.67;20.00;;;;;;;;6132765;38;20244613;-64
2023/02/19 18:42:15;;;;;;;;;21.33;17.33;;;;;;;;6501301;38;8873;-61
2023/02/19 18:48:31;;;;;;;;;17.67;17.67;;;;;;;;6501542;38;8913;-61
2023/02/19 18:54:39;;;;;;;;;21.33;18.67;;;;;;;;6500618;46;8900;-59
2023/02/19 19:00:47;;;;;;;;;16.00;14.33;;;;;;;;6500422;39;8837;-60
2023/02/19 19:07:15;;;;;;;;;17.33;17.00;;;;;;;;6500884;38;8872;-61
2023/02/19 19:13:24;;;;;;;;;25.00;21.00;;;;;;;;6501423;38;8951;-61
2023/02/19 19:19:56;;;;;;;;;25.50;22.00;;;;;;;;6501025;31;8872;-60
2023/02/19 19:26:09;;;;;;;;;25.50;23.50;;;;;;;;6500943;38;8983;-62
2023/02/19 19:32:18;;;;;;;;;23.00;17.75;;;;;;;;6500783;31;8997;-59
2023/02/19 19:38:40;;;;;;;;;12.50;11.00;;;;;;;;6498338;46;8896;-61
2023/02/19 19:44:56;;;;;;;;;28.75;23.50;;;;;;;;6493790;46;8917;-60
2023/02/19 19:51:22;;;;;;;;;16.67;15.67;;;;;;;;6491191;31;8924;-60
2023/02/19 19:57:48;;;;;;;;;23.00;20.00;;;;;;;;6490907;31;8882;-59
2023/02/19 20:04:06;;;;;;;;;29.25;25.25;;;;;;;;6488445;46;8888;-59
2023/02/19 20:10:24;;;;;;;;;22.75;22.75;;;;;;;;6490776;31;8956;-61
2023/02/19 20:16:32;;;;;;;;;27.25;20.75;;;;;;;;6489665;46;8924;-59
2023/02/19 20:22:52;;;;;;;;;25.25;24.25;;;;;;;;6491098;39;8826;-58
2023/02/19 20:29:04;;;;;;;;;24.00;23.75;;;;;;;;6490386;31;9635;-59
2023/02/19 20:35:30;;;;;;;;;25.75;22.50;;;;;;;;6490161;39;8910;-58
2023/02/19 20:41:58;;;;;;;;;25.75;23.50;;;;;;;;6489837;39;8881;-59
2023/02/19 20:48:12;;;;;;;;;21.50;21.25;;;;;;;;6489071;31;9549;-60
2023/02/19 20:54:28;;;;;;;;;21.25;21.25;;;;;;;;6489667;39;8912;-59
2023/02/19 21:00:54;;;;;;;;;31.50;27.50;;;;;;;;6490685;39;9509;-59
2023/02/19 21:07:20;;;;;;;;;25.50;22.25;;;;;;;;6489628;31;8908;-59
2023/02/19 21:13:42;;;;;;;;;21.25;21.00;;;;;;;;6489087;39;8914;-60
2023/02/19 21:20:00;;;;;;;;;22.00;19.75;;;;;;;;6490682;39;8876;-59
2023/02/19 21:26:16;;;;;;;;;22.50;19.75;;;;;;;;6489061;46;9004;-59
2023/02/19 21:32:36;;;;;;;;;15.25;15.25;;;;;;;;6490031;31;9063;-59
2023/02/19 21:38:44;;;;;;;;;14.75;10.25;;;;;;;;6489657;31;8912;-58
2023/02/19 21:44:52;;;;;;;;;20.75;18.50;;;;;;;;6490171;31;9716;-59
2023/02/19 21:51:04;;;;;;;;;21.75;18.25;;;;;;;;6489299;39;9608;-60
2023/02/19 21:57:11;;;;;;;;;21.25;15.75;;;;;;;;6489795;39;8860;-58
2023/02/19 22:03:18;;;;;;;;;19.00;18.75;;;;;;;;6489280;39;9605;-60
2023/02/19 22:09:31;;;;;;;;;15.00;14.75;;;;;;;;6488954;39;8951;-60
2023/02/19 22:16:35;;;;;;;;;16.75;16.75;;;;;;;;6489286;46;8894;-59
2023/02/19 22:22:56;;;;;;;;;17.25;16.00;;;;;;;;6489322;31;8868;-57
2023/02/19 22:29:11;;;;;;;;;19.00;16.75;;;;;;;;6489017;39;8950;-58
2023/02/19 22:35:26;;;;;;;;;19.25;17.75;;;;;;;;6489471;39;8972;-57
2023/02/19 22:41:43;;;;;;;;;23.00;20.50;;;;;;;;6400926;36;5001597;-58
2023/02/19 22:47:58;;;;;;;;;21.50;18.50;;;;;;;;6487583;39;8989;-58
2023/02/19 22:54:07;;;;;;;;;23.00;19.50;;;;;;;;6488168;47;8926;-59
2023/02/19 23:00:24;;;;;;;;;22.50;22.00;;;;;;;;6487327;47;8962;-60
2023/02/19 23:06:41;;;;;;;;;24.50;24.00;;;;;;;;6487637;39;8832;-59
2023/02/19 23:12:55;;;;;;;;;22.50;22.00;;;;;;;;6487031;31;9099;-59
2023/02/19 23:19:16;;;;;;;;;28.75;23.75;;;;;;;;6487757;46;8864;-58
2023/02/19 23:25:33;;;;;;;;;25.00;24.75;;;;;;;;6313458;31;9999727;-59
2023/02/19 23:32:00;;;;;;;;;25.00;20.50;;;;;;;;6489831;31;8940;-58
2023/02/19 23:38:07;;;;;;;;;25.25;21.25;;;;;;;;6488895;46;9086;-58
2023/02/19 23:44:25;;;;;;;;;32.25;26.75;;;;;;;;6488481;39;8940;-58
2023/02/19 23:50:48;;;;;;;;;17.75;17.50;;;;;;;;6490797;39;8950;-58
2023/02/19 23:57:04;;;;;;;;;31.75;28.50;;;;;;;;6488780;39;9005;-59
